Aviation Digital Data Service (ADDS)

Output produced by METARs form (1316 UTC 24 May 2022)
found at http://www.aviationweather.gov/metar/data/
 
VTSB 241300Z 28003KT 9999 FEW020 28/24 Q1009 NOSIG
VTSB 241200Z 26004KT 9999 FEW020 30/23 Q1008 NOSIG
VTSB 241100Z 27009KT 9999 FEW020 32/23 Q1007 NOSIG
VTSB 241000Z 28008KT 9999 VCSH FEW018TCU 33/23 Q1007 NOSIG
VTSB 240900Z 27009KT 9999 FEW020 35/22 Q1008 NOSIG
VTSB 240800Z 27009KT 230V290 9999 FEW020 35/23 Q1008 NOSIG
VTSB 240700Z 25009KT 210V310 9999 FEW020 36/22 Q1008 NOSIG
VTSB 240600Z 24013KT 210V270 9999 FEW020 35/23 Q1009 NOSIG
VTSB 240500Z 25009KT 210V290 9999 SCT020 34/24 Q1009 NOSIG
VTSB 240400Z 24009KT 200V270 9999 FEW020 34/24 Q1010 NOSIG
VTSB 240300Z 21008KT 9999 FEW020 32/25 Q1011 NOSIG
VTSB 240200Z 20007KT 150V230 9999 FEW020 30/26 Q1010 NOSIG
VTSB 240100Z 19006KT 150V220 9999 FEW020 28/25 Q1010 NOSIG
VTSB 240000Z 20006KT 9999 FEW020 26/25 Q1009 NOSIG
VTSB 232300Z 20004KT 170V230 7000 FEW020 25/24 Q1008 NOSIG
VTSB 232200Z 20004KT 6000 FEW020 25/24 Q1007 NOSIG
VTSB 231500Z 20002KT 9999 FEW020 27/25 Q1007 NOSIG
VTSB 231400Z VRB02KT 9999 FEW020 28/25 Q1007 NOSIG
VTSB 231300Z 00000KT 9999 FEW020 27/25 Q1006 NOSIG
TAF VTSB 241100Z 2412/2512 28005KT 9999 FEW020 
     PROB40 
     TEMPO 2506/2512 VRB15G25KT 4000 TSRA FEW016CB SCT018 BKN100